Stevensville, MD

5:02 AM EST on December 11, 2017 (GMT -0500)
Stevensville

Weather History for KW29 - April, 2014

Change the Weather History Date:

Saturday, April 26, 2014

  Actual Average (KESN) Record (KESN)
Temperature  
Mean Temperature 60 °F -  
Max Temperature 71 °F 66 °F 92 °F (1960)
Min Temperature 50 °F 43 °F 34 °F (1964)
Degree Days  
Heating Degree Days 4    
Growing Degree Days 10 (Base 50)    
Moisture  
Dew Point 43 °F    
Average Humidity 57    
Maximum Humidity 100    
Minimum Humidity 31    
Precipitation  
Precipitation 0.00 in - - ()
Sea Level Pressure  
Sea Level Pressure 29.80 in    
Wind  
Wind Speed 10 mph (WNW)    
Max Wind Speed 31 mph    
Max Gust Speed 39 mph    
Visibility 10 miles    
Events Rain , Thunderstorm    
Averages and records for this station are not official NWS values.
T = Trace of Precipitation, MM = Missing Value Source: NWS Daily Summary

Daily Weather History Graph

Daily Weather History Graph

Search for Another Location

Airport or City:

Trip Planner

Search our weather history database for the weather conditions in past years. The results will help you decide how hot, cold, wet, or windy it might be!

Date:

Astronomy

Apr. 26, 2014 Rise Set
Actual Time 6:13 AM EDT 7:53 PM EDT
Civil Twilight 5:45 AM EDT 8:21 PM EDT
Nautical Twilight 5:11 AM EDT 8:56 PM EDT
Astronomical Twilight 4:34 AM EDT 9:32 PM EDT
Moon 4:34 AM EDT (4/26) 5:20 PM EDT (4/26)
Length of Visible Light 14h 36m
Length of Day
13h 39m
Waning Crescent, 8% of the Moon is Illuminated
Apr 26
Waning Crescent
Apr 29
New
May 6
First Quarter
May 14
Full
May 21
Last Quarter

Hourly Weather History & Observations

Time (EDT) Temp. Dew Point Humidity Pressure Visibility Wind Dir Wind Speed Gust Speed Precip Events Conditions
12:00 AM 51.8 °F 50.0 °F 94% 29.72 in 10.0 mi NNW 5.8 mph - N/A   Overcast
12:20 AM 51.8 °F 50.0 °F 94% 29.72 in 7.0 mi NNW 5.8 mph - N/A   Overcast
12:40 AM 51.8 °F 50.0 °F 94% 29.73 in 10.0 mi NNW 6.9 mph - N/A   Overcast
1:00 AM 51.8 °F 50.0 °F 94% 29.73 in 7.0 mi NNW 8.1 mph - N/A   Overcast
1:20 AM 51.8 °F 50.0 °F 94% 29.73 in 10.0 mi NNW 6.9 mph - N/A   Overcast
1:40 AM 50.0 °F 50.0 °F 100% 29.74 in 7.0 mi NW 9.2 mph - N/A   Overcast
2:00 AM 51.8 °F 50.0 °F 94% 29.74 in 5.0 mi WNW 12.7 mph - N/A   Overcast
2:20 AM 51.8 °F 50.0 °F 94% 29.73 in 5.0 mi WNW 9.2 mph - N/A   Overcast
2:40 AM 51.8 °F 51.8 °F 100% 29.73 in 5.0 mi WNW 8.1 mph - N/A   Overcast
3:00 AM 51.8 °F 51.8 °F 100% 29.74 in 7.0 mi WNW 9.2 mph - N/A   Overcast
3:20 AM 51.8 °F 51.8 °F 100% 29.74 in 10.0 mi WNW 10.4 mph - N/A   Overcast
3:40 AM 51.8 °F 50.0 °F 94% 29.74 in 10.0 mi WNW 15.0 mph 18.4 mph N/A   Scattered Clouds
4:00 AM 51.8 °F 46.4 °F 82% 29.76 in 10.0 mi WNW 15.0 mph 23.0 mph N/A   Scattered Clouds
4:20 AM 51.8 °F 42.8 °F 71% 29.77 in 10.0 mi WNW 16.1 mph 24.2 mph N/A   Scattered Clouds
4:40 AM 51.8 °F 42.8 °F 71% 29.77 in 10.0 mi WNW 16.1 mph 21.9 mph N/A   Clear
5:01 AM 51.8 °F 42.8 °F 71% 29.77 in 10.0 mi WNW 15.0 mph 19.6 mph N/A   Clear
5:21 AM 51.8 °F 42.8 °F 71% 29.77 in 10.0 mi WNW 16.1 mph 20.7 mph N/A   Clear
5:41 AM 51.8 °F 41.0 °F 67% 29.79 in 10.0 mi NW 13.8 mph - N/A   Clear
6:01 AM 51.8 °F 41.0 °F 67% 29.80 in 10.0 mi WNW 13.8 mph 18.4 mph N/A   Clear
6:21 AM 50.0 °F 41.0 °F 71% 29.80 in 10.0 mi NW 11.5 mph 16.1 mph N/A   Clear
6:41 AM 50.0 °F 41.0 °F 71% 29.82 in 10.0 mi NW 8.1 mph - N/A   Clear
7:01 AM 50.0 °F 41.0 °F 71% 29.83 in 10.0 mi NW 6.9 mph - N/A   Clear
7:21 AM 51.8 °F 41.0 °F 67% 29.84 in 10.0 mi NW 9.2 mph - N/A   Clear
7:41 AM 51.8 °F 41.0 °F 67% 29.84 in 10.0 mi NW 8.1 mph - N/A   Clear
8:01 AM 53.6 °F 41.0 °F 62% 29.85 in 10.0 mi NW 6.9 mph - N/A   Clear
8:21 AM 53.6 °F 41.0 °F 62% 29.87 in 10.0 mi WNW 8.1 mph - N/A   Clear
8:41 AM 53.6 °F 41.0 °F 62% 29.87 in 10.0 mi WNW 9.2 mph - N/A   Clear
9:01 AM 55.4 °F 41.0 °F 58% 29.88 in 10.0 mi WNW 6.9 mph - N/A   Clear
9:21 AM 55.4 °F 41.0 °F 58% 29.89 in 10.0 mi WNW 6.9 mph - N/A   Clear
9:41 AM 57.2 °F 42.8 °F 59% 29.89 in 10.0 mi WNW 4.6 mph - N/A   Clear
10:01 AM 59.0 °F 42.8 °F 55% 29.89 in 10.0 mi West 6.9 mph - N/A   Clear
10:21 AM 59.0 °F 41.0 °F 51% 29.88 in 10.0 mi Calm Calm - N/A   Clear
10:41 AM 59.0 °F 39.2 °F 48% 29.88 in 10.0 mi West 3.5 mph - N/A   Clear
11:01 AM 60.8 °F 39.2 °F 45% 29.88 in 10.0 mi SW 3.5 mph - N/A   Clear
11:21 AM 62.6 °F 37.4 °F 39% 29.87 in 10.0 mi SE 4.6 mph - N/A   Clear
12:01 PM 62.6 °F 39.2 °F 42% 29.86 in 10.0 mi SE 10.4 mph - N/A   Clear
12:21 PM 62.6 °F 41.0 °F 45% 29.84 in 10.0 mi SE 11.5 mph - N/A   Clear
1:01 PM 64.4 °F 41.0 °F 42% 29.82 in 10.0 mi South 11.5 mph - N/A   Clear
1:21 PM 64.4 °F 41.0 °F 42% 29.82 in 10.0 mi South 10.4 mph - N/A   Clear
1:41 PM 64.4 °F 42.8 °F 45% 29.81 in 10.0 mi SSE 11.5 mph - N/A   Clear
2:02 PM 68.0 °F 42.8 °F 40% 29.80 in 10.0 mi SW 10.4 mph 16.1 mph N/A   Clear
2:22 PM 68.0 °F 41.0 °F 37% 29.79 in 10.0 mi SW 9.2 mph - N/A   Clear
2:42 PM 69.8 °F 41.0 °F 35% 29.78 in 10.0 mi South 12.7 mph 17.3 mph N/A   Clear
3:02 PM 69.8 °F 42.8 °F 38% 29.77 in 10.0 mi SW 9.2 mph 17.3 mph N/A   Clear
3:22 PM 71.6 °F 41.0 °F 33% 29.76 in 10.0 mi SSW 12.7 mph 19.6 mph N/A   Clear
3:42 PM 71.6 °F 41.0 °F 33% 29.75 in 10.0 mi South 9.2 mph - N/A   Clear
4:02 PM 71.6 °F 42.8 °F 35% 29.74 in 10.0 mi SSW 11.5 mph 17.3 mph N/A   Clear
4:22 PM 71.6 °F 42.8 °F 35% 29.73 in 10.0 mi WSW 9.2 mph - N/A   Clear
5:02 PM 69.8 °F 44.6 °F 40% 29.73 in 10.0 mi West 16.1 mph 23.0 mph N/A   Clear
5:22 PM 71.6 °F 42.8 °F 35% 29.74 in 10.0 mi West 19.6 mph 25.3 mph N/A   Clear
5:42 PM 69.8 °F 42.8 °F 38% 29.74 in 10.0 mi West 19.6 mph 25.3 mph N/A   Clear
6:02 PM 69.8 °F 42.8 °F 38% 29.74 in 10.0 mi West 15.0 mph 26.5 mph N/A   Clear
6:22 PM 69.8 °F 44.6 °F 40% 29.74 in 10.0 mi West 13.8 mph - N/A   Clear
6:42 PM 71.6 °F 41.0 °F 33% 29.74 in 10.0 mi West 18.4 mph 23.0 mph N/A   Clear
7:02 PM 69.8 °F 39.2 °F 33% 29.75 in 10.0 mi West 16.1 mph 25.3 mph N/A   Clear
7:22 PM 71.6 °F 39.2 °F 31% 29.76 in 10.0 mi West 15.0 mph 24.2 mph N/A   Clear
7:42 PM 69.8 °F 39.2 °F 33% 29.76 in 10.0 mi West 10.4 mph 25.3 mph N/A   Clear
8:02 PM 69.8 °F 41.0 °F 35% 29.80 in 7.0 mi NW 31.1 mph 39.1 mph N/A Rain Heavy Rain
8:22 PM 64.4 °F 42.8 °F 45% 29.79 in 10.0 mi West 11.5 mph 20.7 mph N/A Thunderstorm Scattered Clouds
8:42 PM 64.4 °F 44.6 °F 49% 29.79 in 10.0 mi WNW 17.3 mph 23.0 mph N/A Rain Light Rain
9:02 PM 66.2 °F 42.8 °F 43% 29.80 in 10.0 mi WNW 17.3 mph 23.0 mph N/A   Scattered Clouds
9:22 PM 64.4 °F 42.8 °F 45% 29.81 in 10.0 mi WNW 16.1 mph 21.9 mph N/A   Clear
10:02 PM 66.2 °F 42.8 °F 43% 29.84 in 10.0 mi WNW 12.7 mph 19.6 mph N/A   Scattered Clouds
10:23 PM 66.2 °F 42.8 °F 43% 29.84 in 10.0 mi WNW 13.8 mph 19.6 mph N/A   Scattered Clouds
10:43 PM 64.4 °F 42.8 °F 45% 29.85 in 10.0 mi WNW 13.8 mph - N/A   Clear
11:03 PM 62.6 °F 41.0 °F 45% 29.86 in 10.0 mi NW 13.8 mph 20.7 mph N/A   Clear
11:23 PM 62.6 °F 37.4 °F 39% 29.87 in 10.0 mi NNW 10.4 mph 16.1 mph N/A   Clear
11:43 PM 60.8 °F 37.4 °F 42% 29.88 in 10.0 mi NNW 13.8 mph 18.4 mph N/A   Clear